ADDS METAR Data INFO
IDs: Format: Raw Decoded Include TAF

Data at: 1353 UTC 26 May 2018

KPWG 261256Z AUTO 00000KT 10SM CLR 23/18 A2986 RMK AO2 SLP114 T02330183
KPWG 261156Z AUTO 34003KT 10SM CLR 19/17 A2985 RMK AO2 SLP114 T01940172 10250 20189 53022
KPWG 261056Z AUTO 00000KT 10SM CLR 21/17 A2983 RMK AO2 SLP103 T02060172
KPWG 260956Z AUTO 00000KT 10SM CLR 21/18 A2980 RMK AO2 SLP095 T02110178
KPWG 260856Z AUTO 18004KT 10SM CLR 23/18 A2979 RMK AO2 SLP088 T02330183 58036
KPWG 260756Z AUTO 18008KT 10SM CLR 24/21 A2979 RMK AO2 SLP091 T02440206
KPWG 260656Z AUTO 01005KT 10SM SCT070 BKN110 25/21 A2990 RMK AO2 SLP127 T02500206
KPWG 260556Z AUTO 20004KT 10SM SCT120 23/20 A2989 RMK AO2 SLP126 T02330200 10289 20228 403440211 53008
KPWG 260456Z AUTO 16006KT 10SM CLR 23/19 A2988 RMK AO2 SLP120 T02330194
KPWG 260356Z AUTO 17006KT 10SM CLR 25/19 A2988 RMK AO2 SLP122 T02500194
KPWG 260256Z AUTO 13008KT 10SM CLR 27/19 A2987 RMK AO2 WSHFT 0157 SLP118 T02670189 55008
KPWG 260222Z AUTO 07009KT 10SM CLR 27/20 A2987 RMK AO2 WSHFT 0157 PRESRR
KPWG 260156Z AUTO 09014G18KT 10SM FEW090 27/20 A2983 RMK AO2 SLP106 T02670200
KPWG 260056Z AUTO 09007KT 10SM CLR 28/20 A2988 RMK AO2 SLP121 T02830200
KPWG 252356Z AUTO 05009KT 8SM FEW055 29/19 A2990 RMK AO2 WSHFT 2255 SLP128 T02890194 10344 20289 55004
KPWG 252320Z AUTO 04008KT 10SM BKN050 BKN080 29/20 A2989 RMK AO2 WSHFT 2255
KPWG 252256Z AUTO 10014G18KT 5SM HZ SCT050 33/22 A2987 RMK AO2 SLP119 T03330217
KPWG 252156Z AUTO 12006KT 10SM CLR 34/21 A2988 RMK AO2 SLP121 T03390206
KPWG 252056Z AUTO 12005KT 10SM CLR 34/21 A2991 RMK AO2 SLP130 T03390211 56018
KPWG 251956Z AUTO 00000KT 9SM FEW049 32/21 A2992 RMK AO2 SLP136 T03220211
KPWG 251856Z AUTO 18008KT 10SM SCT043 33/22 A2994 RMK AO2 SLP142 T03330222
KPWG 251756Z AUTO 15009KT 10SM CLR 32/22 A2996 RMK AO2 SLP148 T03220217 10328 20217 58010
KPWG 251656Z AUTO 18010KT 10SM FEW035 32/22 A2998 RMK AO2 SLP153 T03170217
KPWG 251556Z AUTO 20007KT 10SM CLR 31/22 A2999 RMK AO2 SLP157 T03060222
KPWG 251456Z AUTO 19007KT 10SM CLR 29/22 A2999 RMK AO2 SLP159 T02890222 51005
KPWG 251356Z AUTO 19007KT 10SM CLR 27/22 A2999 RMK AO2 SLP158 T02720222
KPWG 251256Z AUTO 19004KT 10SM CLR 24/22 A2998 RMK AO2 SLP157 T02390222
KPWG 251156Z AUTO 18004KT 10SM CLR 22/21 A2998 RMK AO2 SLP154 T02170211 10244 20211 56003
KPWG 251056Z AUTO 14004KT 10SM CLR 21/21 A2998 RMK AO2 SLP155 T02110206
KPWG 250956Z AUTO 18004KT 10SM CLR 22/21 A2998 RMK AO2 SLP154 T02170206
KPWG 250856Z AUTO 18006KT 10SM CLR 22/21 A2999 RMK AO2 SLP157 T02220206 56010
KPWG 250756Z AUTO 18006KT 10SM CLR 22/21 A2999 RMK AO2 SLP160 T02220206
KPWG 250656Z AUTO 17007KT 10SM CLR 23/21 A3001 RMK AO2 SLP165 T02330206
KPWG 250556Z AUTO 16010KT 10SM CLR 24/21 A3002 RMK AO2 SLP167 T02440211 10322 20244 403330194 50004
KPWG 250456Z AUTO 15010KT 10SM CLR 26/21 A3002 RMK AO2 SLP170 T02560211
KPWG 250356Z AUTO 14006KT 10SM CLR 26/21 A3002 RMK AO2 SLP168 T02560206
KPWG 250256Z AUTO 14005KT 10SM CLR 26/21 A3000 RMK AO2 SLP164 T02610206 53009
KPWG 250156Z AUTO 12005KT 10SM CLR 28/20 A2998 RMK AO2 SLP156 T02780200